createdAt,value
2022-08-23T00:03:05.498Z,8.13
2022-08-23T00:07:11.815Z,9.68
2022-08-23T00:11:32.127Z,6.97
2022-08-23T00:15:33.803Z,12.77
2022-08-23T00:19:36.846Z,9.60
2022-08-23T00:23:38.448Z,11.38
2022-08-23T00:27:40.142Z,8.95
2022-08-23T00:31:41.920Z,7.88
2022-08-23T00:35:44.602Z,12.95
2022-08-23T00:39:46.309Z,8.60
2022-08-23T00:44:07.361Z,7.25
2022-08-23T00:48:09.035Z,12.40
2022-08-23T00:52:31.006Z,10.55
2022-08-23T00:56:36.404Z,8.90
2022-08-23T01:00:38.080Z,8.85
2022-08-23T01:04:44.550Z,9.18
2022-08-23T01:08:52.299Z,10.48
2022-08-23T01:13:03.899Z,6.60
2022-08-23T01:17:12.585Z,12.93
2022-08-23T01:21:21.856Z,7.82
2022-08-23T01:25:25.894Z,10.23
2022-08-23T01:29:28.019Z,6.18
2022-08-23T01:33:29.837Z,10.32
2022-08-23T01:37:31.709Z,10.98
2022-08-23T01:41:33.782Z,9.48
2022-08-23T01:45:37.226Z,11.75
2022-08-23T01:49:41.990Z,9.50
2022-08-23T01:53:44.058Z,8.23
2022-08-23T01:57:49.477Z,14.30
2022-08-23T02:01:53.533Z,10.73
2022-08-23T02:05:57.854Z,9.82
2022-08-23T02:09:59.713Z,8.18
2022-08-23T02:14:05.633Z,6.15
2022-08-23T02:18:16.312Z,9.98
2022-08-23T02:22:18.721Z,10.27
2022-08-23T02:26:20.399Z,10.70
2022-08-23T02:30:33.027Z,10.00
2022-08-23T02:34:36.444Z,14.73
2022-08-23T02:38:38.065Z,12.63
2022-08-23T02:42:40.570Z,13.07
2022-08-23T02:46:42.923Z,10.25
2022-08-23T02:50:44.658Z,12.63
2022-08-23T02:54:46.873Z,12.95
2022-08-23T02:58:54.520Z,10.35
2022-08-23T03:02:57.529Z,10.23
2022-08-23T03:06:59.956Z,14.02
2022-08-23T03:11:02.830Z,10.00
2022-08-23T03:15:11.926Z,7.47
2022-08-23T03:19:13.687Z,10.02
2022-08-23T03:23:15.324Z,10.23
2022-08-23T03:27:17.184Z,13.02
2022-08-23T03:31:19.718Z,11.32
2022-08-23T03:35:42.393Z,10.57
2022-08-23T03:39:46.609Z,10.88
2022-08-23T03:43:49.154Z,11.43
2022-08-23T03:47:51.823Z,13.65
2022-08-23T03:51:53.639Z,10.60
2022-08-23T03:55:56.456Z,12.52
2022-08-23T03:59:59.905Z,16.27
2022-08-23T04:04:04.039Z,9.82
2022-08-23T04:08:10.578Z,11.52
2022-08-23T04:12:17.845Z,14.48
2022-08-23T04:16:20.153Z,13.02
2022-08-23T04:20:21.953Z,13.52
2022-08-23T04:24:30.832Z,17.70
2022-08-23T04:28:36.618Z,12.63
2022-08-23T04:32:38.217Z,13.40
2022-08-23T04:36:44.862Z,14.55
2022-08-23T04:41:16.121Z,18.80
2022-08-23T04:45:20.638Z,16.90
2022-08-23T04:49:25.626Z,12.30
2022-08-23T04:53:30.327Z,16.48
2022-08-23T04:57:54.692Z,15.75
2022-08-23T05:02:00.290Z,12.13
2022-08-23T05:06:05.153Z,14.93
2022-08-23T05:10:15.208Z,12.98
2022-08-23T05:14:21.559Z,12.13
2022-08-23T05:18:24.718Z,13.13
2022-08-23T05:22:26.494Z,14.02
2022-08-23T05:27:03.469Z,14.55
2022-08-23T05:31:05.438Z,16.80
2022-08-23T05:35:17.984Z,17.02
2022-08-23T05:39:25.767Z,13.13
2022-08-23T05:43:38.832Z,15.55
2022-08-23T05:47:40.709Z,18.80
2022-08-23T05:51:56.887Z,15.65
2022-08-23T05:56:20.187Z,11.20
2022-08-23T06:00:21.962Z,20.55
2022-08-23T06:04:38.982Z,13.70
2022-08-23T06:08:41.187Z,13.75
2022-08-23T06:12:42.899Z,12.75
2022-08-23T06:16:47.682Z,18.48
2022-08-23T06:21:05.711Z,11.40
2022-08-23T06:25:16.297Z,15.50
2022-08-23T06:29:46.036Z,15.85
2022-08-23T06:34:18.581Z,12.63
2022-08-23T06:38:38.127Z,15.93
2022-08-23T06:42:58.516Z,19.23
2022-08-23T06:47:09.086Z,17.13
2022-08-23T06:51:29.120Z,13.52
2022-08-23T06:55:49.731Z,15.00
2022-08-23T07:00:12.440Z,16.45
2022-08-23T07:04:35.727Z,15.23
2022-08-23T07:09:05.192Z,12.50
2022-08-23T07:13:07.119Z,24.67
2022-08-23T07:17:09.631Z,18.02
2022-08-23T07:21:12.814Z,13.85
2022-08-23T07:25:17.187Z,10.90
2022-08-23T07:29:22.874Z,13.05
2022-08-23T07:33:24.520Z,15.13
2022-08-23T07:37:40.876Z,8.00
2022-08-23T07:41:43.639Z,13.55
2022-08-23T07:45:48.046Z,18.00
2022-08-23T07:49:50.871Z,10.18
2022-08-23T07:53:53.250Z,11.68
2022-08-23T07:57:56.223Z,8.18
2022-08-23T08:06:19.567Z,8.20
2022-08-23T08:10:21.377Z,8.75
2022-08-23T08:14:23.905Z,6.55
2022-08-23T08:18:29.938Z,6.72
2022-08-23T08:22:58.526Z,4.30
2022-08-23T08:27:22.064Z,8.93
2022-08-23T08:31:25.150Z,9.75
2022-08-23T08:35:26.887Z,7.15
2022-08-23T08:39:31.662Z,6.97
2022-08-23T08:43:57.579Z,11.10
2022-08-23T08:48:13.663Z,10.20
2022-08-23T08:52:27.788Z,8.57
2022-08-23T08:56:40.427Z,7.43
2022-08-23T09:00:55.177Z,8.20
2022-08-23T09:05:01.132Z,7.78
2022-08-23T09:09:23.923Z,8.40
2022-08-23T09:14:09.320Z,7.10
2022-08-23T09:18:14.609Z,6.75
2022-08-23T09:22:30.670Z,9.60
2022-08-23T09:26:32.669Z,9.95
2022-08-23T09:30:55.003Z,9.10
2022-08-23T09:35:06.914Z,6.53
2022-08-23T09:39:30.678Z,13.80
2022-08-23T09:43:44.665Z,9.35
2022-08-23T09:47:46.972Z,9.27
2022-08-23T09:51:54.236Z,11.70
2022-08-23T09:55:58.765Z,7.90
2022-08-23T10:00:15.015Z,7.63
2022-08-23T10:04:37.692Z,12.35
2022-08-23T10:08:58.286Z,11.57
2022-08-23T10:13:04.093Z,9.80
2022-08-23T10:17:30.470Z,13.80
2022-08-23T10:21:54.354Z,8.38
2022-08-23T10:26:01.653Z,10.88
2022-08-23T10:30:23.665Z,11.37
2022-08-23T10:34:53.186Z,8.23
2022-08-23T10:39:03.609Z,11.50
2022-08-23T10:43:14.884Z,11.80
2022-08-23T10:47:21.338Z,10.65
2022-08-23T10:51:42.869Z,11.27
2022-08-23T10:56:04.271Z,9.52
2022-08-23T11:00:21.545Z,7.45
2022-08-23T11:04:38.291Z,5.93
2022-08-23T11:08:59.197Z,9.82
2022-08-23T11:13:06.742Z,8.50
2022-08-23T11:17:29.876Z,6.85
2022-08-23T11:21:38.553Z,7.85
2022-08-23T11:25:45.947Z,3.13
2022-08-23T11:29:48.225Z,3.78
2022-08-23T11:34:28.964Z,5.60
2022-08-23T11:38:48.801Z,3.30
2022-08-23T11:42:53.194Z,4.30
2022-08-23T11:46:55.815Z,2.15
2022-08-23T11:51:20.970Z,5.35
2022-08-23T11:55:44.104Z,2.92
2022-08-23T12:00:10.905Z,8.57
2022-08-23T12:04:37.682Z,1.27
2022-08-23T12:09:04.593Z,5.85
2022-08-23T12:13:18.372Z,2.70
2022-08-23T12:17:25.606Z,3.67
2022-08-23T12:25:42.107Z,4.10
2022-08-23T12:30:05.480Z,3.92
2022-08-23T12:34:34.117Z,4.75
2022-08-23T12:38:42.522Z,3.65
2022-08-23T12:42:44.198Z,3.80
2022-08-23T12:46:48.993Z,5.03
2022-08-23T12:50:58.631Z,10.82
2022-08-23T12:55:00.790Z,6.70
2022-08-23T12:59:07.359Z,3.35
2022-08-23T13:03:22.123Z,6.13
2022-08-23T13:07:24.636Z,5.93
2022-08-23T13:11:29.421Z,4.40
2022-08-23T13:15:59.246Z,8.82
2022-08-23T13:20:00.920Z,7.72
2022-08-23T13:24:38.750Z,6.57
2022-08-23T13:28:40.750Z,6.38
2022-08-23T13:32:48.713Z,9.27
2022-08-23T13:36:50.376Z,7.38
2022-08-23T13:40:59.214Z,5.50
2022-08-23T13:49:24.840Z,8.73
2022-08-23T13:53:29.291Z,9.05
2022-08-23T13:57:32.287Z,11.07
2022-08-23T14:01:39.723Z,10.20
2022-08-23T14:09:43.229Z,5.85
2022-08-23T14:13:47.489Z,8.35
2022-08-23T14:17:51.834Z,13.35
2022-08-23T14:21:54.129Z,9.38
2022-08-23T14:25:56.716Z,10.82
2022-08-23T14:29:58.393Z,8.30
2022-08-23T14:34:02.205Z,11.18
2022-08-23T14:38:13.433Z,9.18
2022-08-23T14:42:19.487Z,9.68
2022-08-23T14:46:23.074Z,8.65
2022-08-23T14:50:24.730Z,5.90
2022-08-23T14:54:29.845Z,8.73
2022-08-23T14:58:48.557Z,9.30
2022-08-23T15:02:50.335Z,9.57
2022-08-23T15:07:16.709Z,7.93
2022-08-23T15:15:37.531Z,7.57
2022-08-23T15:19:39.874Z,6.82
2022-08-23T15:23:43.983Z,7.60
2022-08-23T15:27:47.159Z,5.05
2022-08-23T15:31:48.750Z,5.88
2022-08-23T15:35:52.236Z,5.47
2022-08-23T15:39:54.205Z,5.20
2022-08-23T15:43:55.797Z,5.40
2022-08-23T15:48:01.064Z,9.98
2022-08-23T15:52:03.131Z,7.68
2022-08-23T15:56:15.251Z,8.52
2022-08-23T16:00:19.993Z,8.00
2022-08-23T16:04:21.706Z,7.18
2022-08-23T16:08:27.566Z,7.28
2022-08-23T16:12:29.808Z,7.00
2022-08-23T16:16:36.662Z,11.20
2022-08-23T16:20:38.343Z,6.20
2022-08-23T16:24:40.002Z,6.22
2022-08-23T16:28:42.289Z,5.70
2022-08-23T16:32:43.915Z,5.18
2022-08-23T16:36:51.706Z,7.95
2022-08-23T16:40:53.302Z,4.55
2022-08-23T16:44:54.902Z,8.57
2022-08-23T16:48:56.634Z,5.40
2022-08-23T16:52:58.796Z,8.27
2022-08-23T16:57:02.044Z,6.10
2022-08-23T17:01:04.686Z,5.30
2022-08-23T17:05:10.397Z,7.22
2022-08-23T17:09:13.106Z,4.30
2022-08-23T17:13:15.835Z,3.97
2022-08-23T17:17:17.865Z,4.53
2022-08-23T17:21:19.455Z,6.18
2022-08-23T17:25:21.850Z,3.03
2022-08-23T17:29:23.484Z,5.28
2022-08-23T17:33:25.335Z,6.35
2022-08-23T17:37:27.058Z,4.88
2022-08-23T17:41:28.786Z,3.05
2022-08-23T17:45:47.255Z,2.42
2022-08-23T17:49:49.428Z,3.78
2022-08-23T17:53:51.106Z,4.72
2022-08-23T17:57:56.358Z,6.68
2022-08-23T18:02:04.657Z,4.30
2022-08-23T18:06:16.626Z,3.70
2022-08-23T18:10:18.789Z,5.10
2022-08-23T18:14:20.544Z,4.95
2022-08-23T18:18:22.150Z,4.53
2022-08-23T18:22:23.771Z,7.28
2022-08-23T18:26:44.410Z,3.78
2022-08-23T18:30:54.761Z,5.60
2022-08-23T18:34:56.490Z,4.40
2022-08-23T18:38:58.462Z,3.95
2022-08-23T18:43:00.036Z,5.80
2022-08-23T18:47:02.893Z,3.67
2022-08-23T18:51:05.550Z,4.07
2022-08-23T18:55:17.549Z,2.35
2022-08-23T18:59:19.434Z,3.70
2022-08-23T19:03:21.458Z,4.55
2022-08-23T19:07:23.109Z,2.47
2022-08-23T19:11:24.892Z,2.95
2022-08-23T19:15:29.479Z,3.58
2022-08-23T19:19:31.514Z,1.60
2022-08-23T19:23:33.644Z,4.78
2022-08-23T19:27:35.317Z,2.92
2022-08-23T19:31:42.809Z,1.38
2022-08-23T19:39:46.524Z,1.60
2022-08-23T19:43:48.179Z,1.13
2022-08-23T19:47:49.884Z,1.65
2022-08-23T19:51:55.618Z,1.58
2022-08-23T19:56:01.875Z,3.03
2022-08-23T20:00:13.532Z,1.55
2022-08-23T20:04:17.988Z,3.42
2022-08-23T20:08:19.661Z,1.98
2022-08-23T20:12:21.269Z,1.23
2022-08-23T20:16:23.796Z,2.33
2022-08-23T20:20:25.832Z,6.88
2022-08-23T20:24:48.703Z,3.13
2022-08-23T20:28:59.029Z,2.08
2022-08-23T20:33:02.261Z,5.13
2022-08-23T20:37:05.187Z,3.05
2022-08-23T20:41:08.062Z,5.35
2022-08-23T20:45:10.648Z,4.05
2022-08-23T20:49:12.770Z,3.55
2022-08-23T20:53:14.763Z,3.85
2022-08-23T20:57:16.452Z,5.22
2022-08-23T21:01:18.848Z,5.68
2022-08-23T21:05:20.657Z,4.10
2022-08-23T21:09:27.454Z,4.53
2022-08-23T21:13:31.133Z,3.90
2022-08-23T21:17:32.863Z,3.03
2022-08-23T21:21:34.492Z,5.22
2022-08-23T21:25:36.146Z,2.95
2022-08-23T21:29:38.555Z,2.25
2022-08-23T21:33:42.115Z,3.75
2022-08-23T21:37:43.720Z,5.15
2022-08-23T21:41:48.198Z,3.00
2022-08-23T21:45:49.840Z,2.58
2022-08-23T21:49:52.381Z,2.90
2022-08-23T21:53:54.018Z,4.35
2022-08-23T21:57:55.608Z,3.35
2022-08-23T22:01:57.313Z,2.70
2022-08-23T22:05:59.000Z,3.13
2022-08-23T22:10:02.093Z,3.08
2022-08-23T22:14:03.700Z,4.15
2022-08-23T22:18:05.975Z,4.43
2022-08-23T22:22:07.701Z,4.85
2022-08-23T22:26:09.847Z,6.30
2022-08-23T22:30:11.841Z,6.93
2022-08-23T22:34:13.522Z,6.65
2022-08-23T22:38:15.200Z,10.95
2022-08-23T22:42:16.892Z,9.32
2022-08-23T22:46:19.361Z,12.25
2022-08-23T22:50:21.015Z,13.93
2022-08-23T22:54:23.374Z,8.98
2022-08-23T22:58:25.101Z,8.73
2022-08-23T23:02:26.917Z,7.75
2022-08-23T23:06:29.839Z,8.98
2022-08-23T23:10:31.468Z,10.00
2022-08-23T23:14:33.529Z,9.68
2022-08-23T23:18:35.727Z,12.82
2022-08-23T23:22:37.317Z,12.45
2022-08-23T23:26:39.425Z,13.55
2022-08-23T23:30:43.344Z,10.25
2022-08-23T23:34:45.198Z,11.55
2022-08-23T23:38:47.047Z,11.65
2022-08-23T23:42:48.862Z,11.80
2022-08-23T23:46:50.521Z,15.98
2022-08-23T23:50:52.122Z,11.88
2022-08-23T23:54:53.761Z,11.75
2022-08-23T23:58:56.807Z,10.27
